Washington, California
Current Conditions -  °F | °C
As of 6:52 PM on Friday 21 Nov 2014 (Local Time) from KBLU Reporting Station
Overcast Overcast  
Wind Chill: 36°   Ceiling: 2400
Heat Index: 40°   Visibility: 10mi
Dew Point: 36°   Wind: 6mph
Humidity: 86%   Direction: 120°ESE
Pressure: 30.12"   Gusts: NA
Location:  39.36°N, 120.8°W
Report Text: KBLU 220252Z AUTO 12005KT 10SM OVC024 04/02 A3012 RMK AO2 SLP193 60001 T00440022 50002
Loading
Personal Weather Stations






























Interactive Weather Map New forecast layout! Learn more

10-Day Weather Forecast

Advertisements
Track Severe Weather on mobile